createdAt,value
2018-04-17T00:01:20.725Z,98.00
2018-04-17T00:03:48.268Z,97.40
2018-04-17T00:06:15.824Z,97.40
2018-04-17T00:08:43.365Z,97.40
2018-04-17T00:11:11.689Z,97.40
2018-04-17T00:13:39.220Z,97.40
2018-04-17T00:16:06.793Z,97.30
2018-04-17T00:18:34.335Z,97.40
2018-04-17T00:21:01.887Z,97.60
2018-04-17T00:23:30.204Z,97.30
2018-04-17T00:34:29.509Z,97.00
2018-04-17T00:36:57.064Z,97.20
2018-04-17T00:39:24.624Z,97.30
2018-04-17T00:41:52.161Z,96.90
2018-04-17T00:44:19.719Z,96.90
2018-04-17T00:46:48.137Z,97.50
2018-04-17T00:49:15.721Z,97.50
2018-04-17T00:51:43.272Z,97.50
2018-04-17T00:54:10.878Z,97.60
2018-04-17T00:56:38.423Z,97.80
2018-04-17T00:59:05.985Z,97.80
2018-04-17T01:01:33.546Z,98.10
2018-04-17T01:04:01.112Z,98.20
2018-04-17T01:06:28.652Z,98.30
2018-04-17T01:08:56.330Z,98.40
2018-04-17T01:11:23.873Z,98.40
2018-04-17T01:13:51.434Z,98.70
2018-04-17T01:16:18.968Z,99.00
2018-04-17T01:18:47.268Z,99.20
2018-04-17T01:21:14.837Z,99.20
2018-04-17T01:23:42.366Z,99.30
2018-04-17T01:26:10.710Z,99.50
2018-04-17T01:28:38.267Z,99.50
2018-04-17T01:31:05.825Z,99.50
2018-04-17T01:33:33.471Z,99.70
2018-04-17T01:36:01.062Z,99.80
2018-04-17T01:38:28.726Z,99.90
2018-04-17T01:40:56.352Z,99.90
2018-04-17T01:43:23.887Z,99.90
2018-04-17T01:45:51.441Z,99.90
2018-04-17T01:48:19.757Z,99.90
2018-04-17T01:50:47.317Z,99.90
2018-04-17T01:53:14.861Z,99.90
2018-04-17T01:55:42.436Z,99.90
2018-04-17T01:58:09.968Z,99.90
2018-04-17T02:00:37.512Z,99.90
2018-04-17T02:03:05.840Z,99.90
2018-04-17T02:05:33.368Z,99.90
2018-04-17T02:08:00.935Z,99.90
2018-04-17T02:10:28.466Z,99.90
2018-04-17T02:12:57.818Z,99.90
2018-04-17T02:15:25.360Z,99.90
2018-04-17T02:17:52.930Z,99.90
2018-04-17T02:20:20.476Z,99.90
2018-04-17T02:22:48.041Z,99.90
2018-04-17T02:25:15.577Z,99.90
2018-04-17T02:27:43.998Z,99.90
2018-04-17T02:30:11.542Z,99.90
2018-04-17T02:32:39.134Z,99.90
2018-04-17T02:35:06.661Z,99.90
2018-04-17T02:37:34.221Z,99.90
2018-04-17T02:40:02.598Z,99.90
2018-04-17T02:42:30.196Z,99.90
2018-04-17T02:44:57.737Z,99.90
2018-04-17T02:47:25.281Z,99.90
2018-04-17T02:49:52.845Z,99.90
2018-04-17T02:52:20.393Z,99.90
2018-04-17T02:54:47.968Z,99.90
2018-04-17T02:57:15.540Z,99.90
2018-04-17T02:59:43.119Z,99.90
2018-04-17T03:02:10.668Z,99.90
2018-04-17T03:04:38.221Z,99.90
2018-04-17T03:07:05.772Z,99.90
2018-04-17T03:09:33.352Z,99.90
2018-04-17T03:12:00.918Z,99.90
2018-04-17T03:14:28.480Z,99.90
2018-04-17T03:16:56.040Z,99.90
2018-04-17T03:19:23.622Z,99.90
2018-04-17T03:21:51.233Z,99.90
2018-04-17T03:24:18.872Z,99.90
2018-04-17T03:26:47.225Z,99.90
2018-04-17T03:29:14.848Z,99.90
2018-04-17T03:31:42.390Z,99.90
2018-04-17T03:34:09.937Z,99.90
2018-04-17T03:36:37.498Z,99.90
2018-04-17T03:39:05.749Z,99.90
2018-04-17T03:41:33.296Z,99.90
2018-04-17T03:44:00.841Z,99.90
2018-04-17T03:46:28.400Z,99.90
2018-04-17T03:48:55.937Z,99.90
2018-04-17T03:51:23.493Z,99.90
2018-04-17T03:53:51.161Z,99.90
2018-04-17T03:56:18.720Z,99.90
2018-04-17T03:58:46.252Z,99.90
2018-04-17T04:01:14.743Z,99.90
2018-04-17T04:03:42.376Z,99.90
2018-04-17T04:06:09.961Z,99.90
2018-04-17T04:08:37.501Z,99.90
2018-04-17T04:11:05.837Z,99.90
2018-04-17T04:13:33.372Z,99.90
2018-04-17T04:16:00.909Z,99.90
2018-04-17T04:18:41.132Z,99.90
2018-04-17T04:21:20.493Z,99.90
2018-04-17T04:24:00.715Z,99.90
2018-04-17T04:26:34.462Z,99.90
2018-04-17T04:29:02.791Z,99.90
2018-04-17T04:31:30.335Z,99.90
2018-04-17T04:33:57.911Z,99.90
2018-04-17T04:36:25.554Z,99.90
2018-04-17T04:38:53.110Z,99.90
2018-04-17T04:41:20.644Z,99.90
2018-04-17T04:43:49.050Z,99.90
2018-04-17T04:46:16.592Z,99.90
2018-04-17T04:48:44.153Z,99.90
2018-04-17T04:51:11.705Z,99.80
2018-04-17T04:53:39.289Z,98.70
2018-04-17T04:56:06.829Z,96.60
2018-04-17T04:58:34.421Z,95.70
2018-04-17T05:01:01.980Z,93.60
2018-04-17T05:03:29.520Z,93.20
2018-04-17T05:05:57.084Z,92.50
2018-04-17T05:08:24.620Z,91.50
2018-04-17T05:10:52.945Z,91.50
2018-04-17T05:13:20.498Z,91.50
2018-04-17T05:15:48.157Z,92.70
2018-04-17T05:18:15.701Z,93.10
2018-04-17T05:20:43.291Z,93.30
2018-04-17T05:23:10.828Z,93.50
2018-04-17T05:25:38.382Z,94.00
2018-04-17T05:28:05.933Z,94.50
2018-04-17T05:30:33.528Z,94.60
2018-04-17T05:33:01.083Z,94.90
2018-04-17T05:35:28.634Z,94.90
2018-04-17T05:37:56.224Z,95.00
2018-04-17T05:40:23.784Z,95.40
2018-04-17T05:42:51.353Z,93.90
2018-04-17T05:45:18.907Z,91.40
2018-04-17T05:47:46.472Z,89.00
2018-04-17T05:50:14.023Z,85.70
2018-04-17T05:52:41.606Z,84.50
2018-04-17T05:55:09.164Z,82.30
2018-04-17T05:57:36.739Z,81.20
2018-04-17T06:00:05.081Z,80.00
2018-04-17T06:02:32.661Z,80.00
2018-04-17T06:05:00.232Z,77.10
2018-04-17T06:07:27.818Z,79.00
2018-04-17T06:09:55.377Z,76.70
2018-04-17T06:12:22.961Z,75.50
2018-04-17T06:14:50.511Z,74.50
2018-04-17T06:17:18.053Z,73.30
2018-04-17T06:19:46.406Z,73.80
2018-04-17T06:22:14.737Z,71.50
2018-04-17T06:24:42.304Z,71.30
2018-04-17T06:27:09.864Z,70.50
2018-04-17T06:29:37.434Z,70.20
2018-04-17T06:32:05.002Z,69.50
2018-04-17T06:34:32.576Z,69.40
2018-04-17T06:37:00.123Z,69.30
2018-04-17T06:39:27.686Z,69.50
2018-04-17T06:41:55.264Z,67.60
2018-04-17T06:44:22.822Z,69.10
2018-04-17T06:46:50.412Z,68.00
2018-04-17T06:49:18.748Z,69.70
2018-04-17T06:51:46.323Z,69.70
2018-04-17T06:54:14.724Z,68.90
2018-04-17T06:56:43.031Z,69.00
2018-04-17T06:59:10.576Z,68.70
2018-04-17T07:01:38.141Z,69.20
2018-04-17T07:04:05.699Z,69.20
2018-04-17T07:06:33.269Z,65.70
2018-04-17T07:09:00.837Z,67.30
2018-04-17T07:11:28.420Z,64.70
2018-04-17T07:13:55.976Z,65.20
2018-04-17T07:16:23.546Z,63.80
2018-04-17T07:18:51.105Z,63.00
2018-04-17T07:21:18.679Z,63.10
2018-04-17T07:23:46.294Z,63.80
2018-04-17T07:26:13.824Z,61.90
2018-04-17T07:28:42.152Z,59.70
2018-04-17T07:31:09.712Z,59.60
2018-04-17T07:33:38.244Z,60.80
2018-04-17T07:36:05.804Z,59.80
2018-04-17T07:38:34.128Z,59.50
2018-04-17T07:41:01.714Z,59.30
2018-04-17T07:43:29.253Z,60.90
2018-04-17T07:45:56.791Z,57.30
2018-04-17T07:48:36.278Z,57.80
2018-04-17T07:51:03.816Z,56.80
2018-04-17T07:53:31.387Z,56.30
2018-04-17T07:55:58.933Z,56.20
2018-04-17T07:58:26.510Z,55.00
2018-04-17T08:00:54.068Z,53.90
2018-04-17T08:03:21.661Z,52.00
2018-04-17T08:05:49.209Z,51.60
2018-04-17T08:08:16.775Z,50.00
2018-04-17T08:10:44.339Z,51.20
2018-04-17T08:13:11.895Z,51.80
2018-04-17T08:15:39.443Z,51.50
2018-04-17T08:18:07.009Z,49.90
2018-04-17T08:20:34.568Z,50.00
2018-04-17T08:23:02.140Z,47.70
2018-04-17T08:25:29.692Z,47.60
2018-04-17T08:27:57.317Z,45.60
2018-04-17T08:30:24.906Z,46.80
2018-04-17T08:32:52.462Z,44.60
2018-04-17T08:35:20.014Z,45.30
2018-04-17T08:37:47.557Z,45.90
2018-04-17T08:40:15.122Z,46.20
2018-04-17T08:42:42.687Z,45.30
2018-04-17T08:45:10.273Z,43.50
2018-04-17T08:47:37.831Z,43.00
2018-04-17T08:50:05.481Z,43.70
2018-04-17T08:52:33.023Z,45.40
2018-04-17T08:55:00.591Z,44.80
2018-04-17T08:57:28.139Z,44.50
2018-04-17T08:59:55.707Z,40.50
2018-04-17T09:02:23.257Z,43.40
2018-04-17T09:04:50.821Z,42.40
2018-04-17T09:07:18.373Z,43.50
2018-04-17T09:09:45.920Z,44.20
2018-04-17T09:12:13.491Z,42.80
2018-04-17T09:14:41.027Z,40.60
2018-04-17T09:17:09.342Z,41.00
2018-04-17T09:19:36.915Z,40.90
2018-04-17T09:22:04.505Z,41.90
2018-04-17T09:24:32.051Z,38.70
2018-04-17T09:26:59.606Z,41.60
2018-04-17T09:29:27.143Z,42.90
2018-04-17T09:31:54.700Z,43.10
2018-04-17T09:34:22.243Z,43.50
2018-04-17T09:36:49.815Z,39.30
2018-04-17T09:39:17.353Z,41.50
2018-04-17T09:41:44.912Z,41.50
2018-04-17T09:44:12.497Z,39.80
2018-04-17T09:46:40.075Z,40.20
2018-04-17T09:49:07.617Z,38.10
2018-04-17T09:51:35.168Z,39.10
2018-04-17T09:54:02.730Z,37.30
2018-04-17T09:56:30.270Z,39.90
2018-04-17T09:58:58.598Z,38.50
2018-04-17T10:01:26.136Z,38.50
2018-04-17T10:03:53.713Z,37.60
2018-04-17T10:06:21.250Z,38.40
2018-04-17T10:08:48.877Z,39.10
2018-04-17T10:11:16.390Z,40.30
2018-04-17T10:13:44.019Z,40.90
2018-04-17T10:16:11.557Z,36.40
2018-04-17T10:18:39.983Z,39.30
2018-04-17T10:21:08.452Z,39.10
2018-04-17T10:23:36.025Z,38.20
2018-04-17T10:26:03.612Z,38.40
2018-04-17T10:28:31.194Z,38.00
2018-04-17T10:30:58.747Z,42.00
2018-04-17T10:33:26.310Z,39.20
2018-04-17T10:35:53.878Z,40.50
2018-04-17T10:38:22.194Z,40.30
2018-04-17T10:40:49.752Z,40.10
2018-04-17T10:43:17.304Z,40.10
2018-04-17T10:45:44.907Z,39.00
2018-04-17T10:48:13.265Z,41.60
2018-04-17T10:50:40.841Z,41.60
2018-04-17T10:53:08.372Z,39.60
2018-04-17T10:55:35.931Z,37.30
2018-04-17T10:58:03.484Z,39.30
2018-04-17T11:00:31.072Z,39.50
2018-04-17T11:02:58.603Z,40.00
2018-04-17T11:05:26.169Z,40.30
2018-04-17T11:07:53.704Z,38.60
2018-04-17T11:10:21.285Z,40.70
2018-04-17T11:12:48.817Z,40.30
2018-04-17T11:15:16.393Z,40.90
2018-04-17T11:17:44.690Z,41.00
2018-04-17T11:20:12.229Z,41.00
2018-04-17T11:22:40.556Z,40.20
2018-04-17T11:25:08.108Z,40.30
2018-04-17T11:27:35.702Z,40.40
2018-04-17T11:30:03.242Z,40.60
2018-04-17T11:32:30.797Z,41.20
2018-04-17T11:34:58.339Z,42.40
2018-04-17T11:37:25.897Z,42.90
2018-04-17T11:39:53.452Z,44.50
2018-04-17T11:42:21.013Z,45.70
2018-04-17T11:44:48.560Z,46.00
2018-04-17T11:47:16.130Z,44.10
2018-04-17T11:49:43.664Z,44.80
2018-04-17T11:52:12.005Z,47.70
2018-04-17T11:54:39.647Z,48.60
2018-04-17T11:57:07.237Z,48.70
2018-04-17T11:59:34.784Z,47.00
2018-04-17T12:02:02.335Z,48.50
2018-04-17T12:04:29.889Z,46.30
2018-04-17T12:06:57.436Z,46.70
2018-04-17T12:09:25.033Z,46.70
2018-04-17T12:11:52.709Z,46.00
2018-04-17T12:14:20.262Z,46.70
2018-04-17T12:16:47.790Z,45.70
2018-04-17T12:19:15.341Z,46.00
2018-04-17T12:21:42.873Z,47.50
2018-04-17T12:24:10.425Z,46.50
2018-04-17T12:26:38.734Z,45.90
2018-04-17T12:29:06.303Z,45.90
2018-04-17T12:31:33.838Z,44.20
2018-04-17T12:34:01.456Z,45.30
2018-04-17T12:36:29.013Z,45.80
2018-04-17T12:38:56.580Z,47.50
2018-04-17T12:41:24.111Z,46.70
2018-04-17T12:43:51.792Z,48.30
2018-04-17T12:46:19.336Z,49.80
2018-04-17T12:48:46.908Z,48.40
2018-04-17T12:51:14.455Z,47.70
2018-04-17T12:53:41.992Z,48.50
2018-04-17T12:56:09.558Z,49.60
2018-04-17T12:58:37.117Z,50.70
2018-04-17T13:01:04.680Z,52.70
2018-04-17T13:03:32.239Z,49.60
2018-04-17T13:05:59.818Z,50.80
2018-04-17T13:08:27.353Z,51.50
2018-04-17T13:10:54.936Z,48.50
2018-04-17T13:13:22.481Z,45.40
2018-04-17T13:15:50.042Z,47.30
2018-04-17T13:18:17.605Z,45.30
2018-04-17T13:20:45.191Z,45.70
2018-04-17T13:23:12.727Z,46.10
2018-04-17T13:25:40.312Z,46.90
2018-04-17T13:28:07.852Z,46.80
2018-04-17T13:30:35.390Z,48.60
2018-04-17T13:33:02.999Z,47.20
2018-04-17T13:35:30.550Z,48.90
2018-04-17T13:37:58.124Z,49.50
2018-04-17T13:40:25.667Z,49.30
2018-04-17T13:42:53.221Z,48.00
2018-04-17T13:45:20.765Z,48.20
2018-04-17T13:47:48.348Z,48.80
2018-04-17T13:50:15.903Z,49.70
2018-04-17T13:52:43.469Z,48.20
2018-04-17T13:55:11.061Z,47.90
2018-04-17T13:57:38.651Z,47.40
2018-04-17T14:00:06.201Z,48.60
2018-04-17T14:02:34.550Z,47.30
2018-04-17T14:05:02.100Z,47.20
2018-04-17T14:07:29.683Z,48.30
2018-04-17T14:09:57.226Z,48.40
2018-04-17T14:12:24.793Z,47.80
2018-04-17T14:14:52.358Z,45.70
2018-04-17T14:17:19.919Z,44.80
2018-04-17T14:19:47.484Z,45.80
2018-04-17T14:22:15.034Z,46.80
2018-04-17T14:24:42.610Z,46.70
2018-04-17T14:27:10.157Z,45.90
2018-04-17T14:29:37.717Z,45.60
2018-04-17T14:32:05.264Z,46.20
2018-04-17T14:34:32.833Z,45.90
2018-04-17T14:37:00.422Z,45.90
2018-04-17T14:39:28.762Z,48.40
2018-04-17T14:41:56.308Z,48.40
2018-04-17T14:44:23.876Z,49.60
2018-04-17T14:46:51.420Z,50.50
2018-04-17T14:49:18.998Z,49.40
2018-04-17T14:51:46.542Z,49.60
2018-04-17T14:54:14.181Z,48.50
2018-04-17T14:56:41.773Z,49.20
2018-04-17T14:59:09.371Z,48.50
2018-04-17T15:01:36.940Z,47.80
2018-04-17T15:04:04.507Z,49.20
2018-04-17T15:06:32.073Z,47.60
2018-04-17T15:08:59.666Z,47.90
2018-04-17T15:11:27.303Z,47.80
2018-04-17T15:13:55.683Z,48.20
2018-04-17T15:16:23.268Z,48.20
2018-04-17T15:18:50.817Z,48.10
2018-04-17T15:21:18.384Z,48.50
2018-04-17T15:23:45.936Z,48.70
2018-04-17T15:26:13.510Z,48.50
2018-04-17T15:28:41.064Z,49.10
2018-04-17T15:31:08.645Z,48.80
2018-04-17T15:33:36.204Z,49.40
2018-04-17T15:36:03.763Z,49.60
2018-04-17T15:38:31.306Z,49.20
2018-04-17T15:40:58.866Z,49.70
2018-04-17T15:43:26.481Z,50.20
2018-04-17T15:45:54.038Z,50.50
2018-04-17T15:48:21.614Z,50.20
2018-04-17T15:50:49.171Z,49.40
2018-04-17T15:53:17.521Z,50.20
2018-04-17T15:55:45.073Z,50.10
2018-04-17T15:58:12.645Z,50.40
2018-04-17T16:00:40.182Z,49.90
2018-04-17T16:03:07.735Z,50.80
2018-04-17T16:05:35.317Z,51.30
2018-04-17T16:08:02.894Z,51.00
2018-04-17T16:10:30.462Z,51.10
2018-04-17T16:12:58.111Z,51.30
2018-04-17T16:15:25.640Z,51.20
2018-04-17T16:17:53.367Z,50.60
2018-04-17T16:20:21.712Z,52.00
2018-04-17T16:22:49.279Z,52.00
2018-04-17T16:25:16.846Z,52.10
2018-04-17T16:27:45.208Z,52.70
2018-04-17T16:30:12.785Z,52.70
2018-04-17T16:32:40.347Z,53.10
2018-04-17T16:35:07.949Z,53.60
2018-04-17T16:37:36.270Z,53.60
2018-04-17T16:40:03.834Z,53.60
2018-04-17T16:42:31.401Z,54.30
2018-04-17T16:44:58.994Z,54.20
2018-04-17T16:47:27.300Z,53.90
2018-04-17T16:49:54.872Z,53.90
2018-04-17T16:52:22.636Z,54.80
2018-04-17T16:54:50.205Z,54.90
2018-04-17T16:57:17.825Z,54.60
2018-04-17T16:59:46.193Z,54.60
2018-04-17T17:02:14.534Z,55.10
2018-04-17T17:04:42.119Z,55.00
2018-04-17T17:07:09.693Z,55.10
2018-04-17T17:09:38.008Z,55.30
2018-04-17T17:12:05.590Z,55.30
2018-04-17T17:14:33.135Z,54.70
2018-04-17T17:17:00.746Z,54.90
2018-04-17T17:19:28.310Z,56.50
2018-04-17T17:22:01.583Z,56.30
2018-04-17T17:24:29.893Z,56.80
2018-04-17T17:26:57.455Z,56.50
2018-04-17T17:29:25.777Z,57.40
2018-04-17T17:31:53.335Z,57.50
2018-04-17T17:34:20.893Z,57.70
2018-04-17T17:36:48.472Z,58.30
2018-04-17T17:39:16.124Z,58.60
2018-04-17T17:41:43.841Z,58.70
2018-04-17T17:44:12.174Z,59.80
2018-04-17T17:46:39.823Z,59.80
2018-04-17T17:49:07.378Z,60.20
2018-04-17T17:51:35.930Z,60.40
2018-04-17T17:54:03.517Z,60.90
2018-04-17T17:56:31.110Z,61.40
2018-04-17T17:58:58.680Z,61.40
2018-04-17T18:01:26.224Z,62.00
2018-04-17T18:03:53.860Z,63.20
2018-04-17T18:06:22.312Z,63.20
2018-04-17T18:08:49.895Z,63.10
2018-04-17T18:11:17.474Z,64.30
2018-04-17T18:13:45.050Z,64.60
2018-04-17T18:16:12.622Z,64.40
2018-04-17T18:18:40.192Z,64.80
2018-04-17T18:21:07.736Z,64.90
2018-04-17T18:23:35.305Z,66.00
2018-04-17T18:26:02.845Z,65.90
2018-04-17T18:28:30.420Z,65.90
2018-04-17T18:30:58.956Z,66.00
2018-04-17T18:33:27.467Z,65.60
2018-04-17T18:35:55.047Z,66.20
2018-04-17T18:38:22.631Z,65.90
2018-04-17T18:40:51.011Z,66.80
2018-04-17T18:43:19.333Z,67.10
2018-04-17T18:45:46.940Z,67.00
2018-04-17T18:48:14.489Z,67.60
2018-04-17T18:50:42.067Z,68.70
2018-04-17T18:53:09.617Z,69.40
2018-04-17T18:55:37.177Z,70.40
2018-04-17T18:58:04.724Z,70.80
2018-04-17T19:00:32.284Z,71.30
2018-04-17T19:02:59.823Z,72.20
2018-04-17T19:05:27.387Z,73.10
2018-04-17T19:07:54.951Z,73.90
2018-04-17T19:10:22.566Z,74.50
2018-04-17T19:12:50.890Z,77.30
2018-04-17T19:15:18.454Z,77.20
2018-04-17T19:17:46.022Z,77.10
2018-04-17T19:20:13.563Z,77.80
2018-04-17T19:22:41.170Z,78.50
2018-04-17T19:25:08.721Z,78.80
2018-04-17T19:27:36.287Z,78.90
2018-04-17T19:30:03.845Z,79.30
2018-04-17T19:32:31.433Z,80.10
2018-04-17T19:34:59.019Z,78.40
2018-04-17T19:37:26.569Z,77.50
2018-04-17T19:39:54.339Z,78.20
2018-04-17T19:42:21.895Z,78.00
2018-04-17T19:44:49.444Z,78.90
2018-04-17T19:47:17.013Z,79.10
2018-04-17T19:49:44.569Z,78.00
2018-04-17T19:52:12.172Z,79.60
2018-04-17T19:54:39.745Z,81.30
2018-04-17T19:57:07.299Z,80.40
2018-04-17T19:59:34.864Z,82.10
2018-04-17T20:02:02.420Z,81.90
2018-04-17T20:04:30.040Z,82.30
2018-04-17T20:06:57.631Z,82.60
2018-04-17T20:09:25.237Z,84.50
2018-04-17T20:11:53.564Z,84.80
2018-04-17T20:14:21.145Z,84.70
2018-04-17T20:16:49.468Z,85.60
2018-04-17T20:19:17.804Z,86.90
2018-04-17T20:21:45.463Z,86.90
2018-04-17T20:24:13.076Z,87.10
2018-04-17T20:26:40.616Z,87.30
2018-04-17T20:29:08.973Z,87.70
2018-04-17T20:31:36.535Z,87.60
2018-04-17T20:34:04.098Z,87.20
2018-04-17T20:36:31.633Z,87.10
2018-04-17T20:38:59.222Z,86.50
2018-04-17T20:41:26.770Z,85.90
2018-04-17T20:43:54.327Z,86.10
2018-04-17T20:46:21.906Z,87.00
2018-04-17T20:48:49.469Z,87.70
2018-04-17T20:51:19.045Z,87.70
2018-04-17T20:53:46.617Z,87.70
2018-04-17T20:56:15.166Z,88.70
2018-04-17T20:58:42.703Z,90.20
2018-04-17T21:01:11.204Z,90.70
2018-04-17T21:03:38.746Z,90.80
2018-04-17T21:06:07.081Z,90.50
2018-04-17T21:08:34.648Z,90.50
2018-04-17T21:11:02.211Z,90.40
2018-04-17T21:13:29.762Z,90.00
2018-04-17T21:15:58.089Z,90.30
2018-04-17T21:18:26.579Z,90.30
2018-04-17T21:20:54.143Z,90.10
2018-04-17T21:23:21.688Z,90.70
2018-04-17T21:25:49.285Z,90.70
2018-04-17T21:28:16.858Z,90.80
2018-04-17T21:30:44.402Z,90.60
2018-04-17T21:33:11.962Z,91.10
2018-04-17T21:35:39.610Z,91.20
2018-04-17T21:38:07.196Z,90.70
2018-04-17T21:40:34.811Z,90.40
2018-04-17T21:43:02.402Z,90.20
2018-04-17T21:45:30.005Z,90.10
2018-04-17T21:47:57.616Z,90.00
2018-04-17T21:50:25.220Z,89.70
2018-04-17T21:52:52.798Z,89.80
2018-04-17T21:55:21.186Z,89.90
2018-04-17T21:57:49.538Z,89.70
2018-04-17T22:00:17.166Z,89.70
2018-04-17T22:02:44.755Z,90.00
2018-04-17T22:05:13.414Z,90.00
2018-04-17T22:07:40.960Z,90.20
2018-04-17T22:10:08.603Z,90.20
2018-04-17T22:12:36.936Z,90.50
2018-04-17T22:15:04.496Z,90.50
2018-04-17T22:17:32.050Z,90.50
2018-04-17T22:19:59.611Z,90.50
2018-04-17T22:22:27.150Z,90.70
2018-04-17T22:24:54.720Z,91.80
2018-04-17T22:27:23.279Z,91.30
2018-04-17T22:29:50.852Z,91.40
2018-04-17T22:32:18.418Z,91.70
2018-04-17T22:34:45.982Z,91.60
2018-04-17T22:37:13.544Z,91.60
2018-04-17T22:39:41.100Z,91.80
2018-04-17T22:42:08.663Z,91.80
2018-04-17T22:44:36.225Z,92.00
2018-04-17T22:47:03.769Z,92.60
2018-04-17T22:49:31.332Z,92.60
2018-04-17T22:51:58.881Z,92.90
2018-04-17T22:54:26.451Z,92.90
2018-04-17T22:56:54.019Z,92.70
2018-04-17T22:59:21.578Z,92.40
2018-04-17T23:01:49.133Z,92.30
2018-04-17T23:04:16.678Z,91.60
2018-04-17T23:06:44.243Z,91.70
2018-04-17T23:09:11.797Z,91.50
2018-04-17T23:11:39.365Z,91.40
2018-04-17T23:14:07.883Z,91.60
2018-04-17T23:16:35.528Z,91.60
2018-04-17T23:19:03.082Z,91.70
2018-04-17T23:21:30.662Z,92.00
2018-04-17T23:23:58.210Z,92.00
2018-04-17T23:26:25.778Z,92.20
2018-04-17T23:28:53.319Z,92.30
2018-04-17T23:31:20.893Z,92.30
2018-04-17T23:33:48.440Z,92.30
2018-04-17T23:36:16.010Z,92.40
2018-04-17T23:38:43.568Z,92.40
2018-04-17T23:41:11.113Z,92.50
2018-04-17T23:43:38.687Z,92.40
2018-04-17T23:46:06.245Z,92.40
2018-04-17T23:48:34.829Z,92.30
2018-04-17T23:51:02.394Z,92.50
2018-04-17T23:53:29.974Z,92.40
2018-04-17T23:55:57.554Z,92.40
2018-04-17T23:58:25.130Z,92.50
